createdAt,value
2023-02-04T00:00:49.561Z,5.46
2023-02-04T00:02:52.719Z,5.80
2023-02-04T00:04:55.636Z,5.75
2023-02-04T00:06:58.413Z,5.67
2023-02-04T00:09:01.179Z,5.66
2023-02-04T00:11:07.355Z,5.81
2023-02-04T00:13:10.148Z,5.65
2023-02-04T00:15:12.911Z,5.30
2023-02-04T00:17:17.199Z,5.86
2023-02-04T00:19:19.980Z,5.91
2023-02-04T00:21:22.750Z,5.93
2023-02-04T00:23:25.467Z,5.86
2023-02-04T00:25:28.480Z,5.91
2023-02-04T00:27:31.202Z,5.78
2023-02-04T00:29:33.948Z,5.72
2023-02-04T00:31:36.710Z,5.86
2023-02-04T00:33:42.769Z,5.96
2023-02-04T00:35:45.541Z,5.51
2023-02-04T00:37:49.655Z,5.37
2023-02-04T00:39:52.851Z,5.42
2023-02-04T00:41:55.624Z,6.10
2023-02-04T00:43:58.384Z,6.20
2023-02-04T00:46:01.319Z,6.15
2023-02-04T00:48:04.156Z,5.69
2023-02-04T00:50:08.881Z,6.29
2023-02-04T00:52:11.664Z,6.22
2023-02-04T00:54:15.892Z,6.21
2023-02-04T00:56:18.725Z,6.07
2023-02-04T00:58:21.474Z,6.10
2023-02-04T01:00:24.457Z,6.06
2023-02-04T01:02:27.326Z,6.10
2023-02-04T01:04:30.089Z,5.92
2023-02-04T01:06:34.491Z,5.32
2023-02-04T01:08:37.254Z,5.89
2023-02-04T01:10:40.092Z,5.98
2023-02-04T01:12:43.066Z,5.80
2023-02-04T01:14:46.018Z,6.05
2023-02-04T01:16:48.929Z,5.93
2023-02-04T01:18:51.921Z,5.92
2023-02-04T01:20:54.714Z,5.88
2023-02-04T01:22:58.847Z,5.85
2023-02-04T01:25:01.752Z,5.96
2023-02-04T01:27:17.041Z,5.98
2023-02-04T01:29:19.824Z,6.12
2023-02-04T01:31:22.821Z,6.16
2023-02-04T01:33:25.585Z,6.21
2023-02-04T01:35:28.420Z,6.02
2023-02-04T01:37:31.131Z,6.06
2023-02-04T01:39:35.227Z,5.53
2023-02-04T01:41:38.016Z,5.95
2023-02-04T01:43:40.771Z,6.19
2023-02-04T01:45:43.568Z,6.32
2023-02-04T01:47:47.265Z,6.17
2023-02-04T01:49:53.949Z,5.92
2023-02-04T01:51:56.767Z,6.16
2023-02-04T01:54:01.136Z,6.25
2023-02-04T01:56:16.781Z,5.96
2023-02-04T01:58:20.312Z,5.63
2023-02-04T02:00:26.468Z,5.98
2023-02-04T02:02:43.532Z,6.02
2023-02-04T02:04:46.344Z,6.11
2023-02-04T02:06:53.531Z,6.19
2023-02-04T02:08:58.255Z,6.29
2023-02-04T02:11:01.115Z,6.29
2023-02-04T02:13:06.047Z,6.38
2023-02-04T02:15:10.469Z,6.37
2023-02-04T02:17:13.296Z,6.41
2023-02-04T02:19:21.391Z,6.30
2023-02-04T02:21:32.574Z,5.90
2023-02-04T02:23:48.688Z,6.10
2023-02-04T02:25:52.202Z,5.83
2023-02-04T02:27:55.620Z,6.02
2023-02-04T02:29:58.421Z,6.02
2023-02-04T02:32:01.535Z,5.33
2023-02-04T02:34:04.296Z,6.20
2023-02-04T02:36:08.887Z,6.26
2023-02-04T02:38:12.357Z,5.92
2023-02-04T02:40:19.324Z,6.43
2023-02-04T02:42:22.264Z,6.19
2023-02-04T02:44:26.007Z,6.09
2023-02-04T02:46:28.947Z,6.20
2023-02-04T02:48:31.792Z,5.52
2023-02-04T02:50:34.974Z,6.22
2023-02-04T02:52:37.800Z,5.54
2023-02-04T02:54:41.537Z,6.49
2023-02-04T02:56:48.621Z,6.52
2023-02-04T02:58:51.648Z,6.18
2023-02-04T03:00:55.230Z,5.79
2023-02-04T03:03:02.559Z,6.37
2023-02-04T03:05:05.761Z,6.33
2023-02-04T03:07:11.453Z,6.38
2023-02-04T03:09:14.929Z,6.51
2023-02-04T03:11:17.819Z,6.61
2023-02-04T03:13:23.239Z,6.64
2023-02-04T03:15:26.188Z,6.68
2023-02-04T03:17:29.782Z,6.52
2023-02-04T03:19:33.290Z,6.46
2023-02-04T03:21:36.751Z,6.26
2023-02-04T03:23:39.812Z,6.51
2023-02-04T03:25:42.632Z,6.58
2023-02-04T03:27:45.603Z,6.62
2023-02-04T03:29:49.927Z,6.32
2023-02-04T03:31:55.248Z,6.35
2023-02-04T03:33:58.054Z,6.47
2023-02-04T03:36:00.959Z,6.59
2023-02-04T03:38:03.709Z,6.61
2023-02-04T03:40:07.161Z,6.66
2023-02-04T03:42:09.900Z,6.53
2023-02-04T03:44:12.657Z,6.53
2023-02-04T03:46:16.856Z,6.70
2023-02-04T03:48:19.693Z,6.69
2023-02-04T03:50:22.527Z,6.66
2023-02-04T03:52:25.209Z,6.67
2023-02-04T03:54:27.955Z,6.67
2023-02-04T03:56:30.824Z,6.39
2023-02-04T03:58:33.622Z,6.61
2023-02-04T04:00:36.381Z,6.55
2023-02-04T04:02:40.928Z,6.57
2023-02-04T04:04:43.676Z,6.44
2023-02-04T04:06:46.632Z,6.56
2023-02-04T04:08:49.461Z,6.39
2023-02-04T04:10:52.629Z,6.23
2023-02-04T04:12:55.349Z,5.84
2023-02-04T04:14:58.142Z,6.42
2023-02-04T04:17:00.940Z,6.35
2023-02-04T04:19:05.147Z,6.20
2023-02-04T04:21:08.957Z,5.51
2023-02-04T04:23:11.723Z,5.75
2023-02-04T04:25:14.485Z,6.20
2023-02-04T04:27:17.325Z,6.38
2023-02-04T04:29:20.170Z,6.45
2023-02-04T04:31:22.961Z,6.55
2023-02-04T04:33:25.810Z,6.13
2023-02-04T04:35:29.920Z,6.04
2023-02-04T04:37:34.753Z,6.17
2023-02-04T04:39:38.444Z,5.42
2023-02-04T04:41:41.223Z,6.00
2023-02-04T04:43:43.975Z,6.03
2023-02-04T04:45:46.750Z,5.93
2023-02-04T04:47:49.649Z,5.94
2023-02-04T04:49:52.417Z,5.96
2023-02-04T04:51:56.553Z,5.80
2023-02-04T04:53:59.855Z,5.83
2023-02-04T04:56:02.627Z,5.86
2023-02-04T04:58:05.782Z,5.70
2023-02-04T05:00:10.288Z,6.00
2023-02-04T05:02:13.452Z,6.00
2023-02-04T05:04:16.205Z,5.92
2023-02-04T05:06:25.176Z,5.41
2023-02-04T05:08:29.230Z,6.03
2023-02-04T05:10:32.223Z,6.19
2023-02-04T05:12:35.130Z,6.03
2023-02-04T05:14:39.130Z,6.17
2023-02-04T05:16:41.959Z,6.23
2023-02-04T05:18:44.957Z,5.95
2023-02-04T05:20:47.800Z,5.31
2023-02-04T05:22:50.520Z,5.64
2023-02-04T05:24:54.611Z,5.59
2023-02-04T05:26:57.575Z,5.52
2023-02-04T05:29:01.327Z,5.29
2023-02-04T05:31:04.141Z,5.26
2023-02-04T05:33:06.924Z,5.12
2023-02-04T05:35:10.230Z,5.05
2023-02-04T05:37:15.344Z,4.98
2023-02-04T05:39:18.393Z,4.91
2023-02-04T05:41:22.605Z,4.40
2023-02-04T05:43:25.408Z,4.87
2023-02-04T05:45:28.185Z,4.95
2023-02-04T05:47:31.118Z,4.93
2023-02-04T05:49:33.896Z,4.98
2023-02-04T05:51:36.653Z,4.95
2023-02-04T05:53:39.389Z,4.85
2023-02-04T05:55:42.104Z,4.72
2023-02-04T05:57:46.222Z,4.94
2023-02-04T05:59:48.922Z,4.90
2023-02-04T06:01:51.712Z,4.93
2023-02-04T06:03:54.436Z,4.87
2023-02-04T06:05:58.109Z,5.04
2023-02-04T06:08:00.891Z,5.01
2023-02-04T06:10:03.719Z,4.96
2023-02-04T06:12:06.756Z,4.84
2023-02-04T06:14:11.131Z,4.99
2023-02-04T06:16:14.949Z,4.80
2023-02-04T06:18:17.802Z,4.27
2023-02-04T06:20:20.562Z,4.91
2023-02-04T06:22:24.369Z,4.81
2023-02-04T06:24:27.097Z,4.87
2023-02-04T06:26:29.845Z,4.92
2023-02-04T06:28:32.566Z,4.93
2023-02-04T06:30:37.468Z,4.89
2023-02-04T06:32:40.493Z,5.05
2023-02-04T06:34:43.229Z,5.19
2023-02-04T06:36:46.006Z,5.19
2023-02-04T06:38:48.766Z,5.04
2023-02-04T06:40:53.728Z,5.01
2023-02-04T06:42:56.600Z,5.11
2023-02-04T06:44:59.338Z,5.18
2023-02-04T06:47:03.360Z,5.16
2023-02-04T06:49:06.094Z,4.89
2023-02-04T06:51:08.836Z,5.10
2023-02-04T06:53:11.586Z,4.96
2023-02-04T06:55:14.591Z,4.92
2023-02-04T06:57:17.314Z,4.83
2023-02-04T06:59:20.035Z,4.83
2023-02-04T07:01:22.819Z,4.97
2023-02-04T07:03:26.943Z,5.13
2023-02-04T07:05:29.747Z,5.17
2023-02-04T07:07:32.800Z,4.90
2023-02-04T07:09:35.934Z,4.74
2023-02-04T07:11:38.663Z,4.75
2023-02-04T07:13:41.403Z,4.76
2023-02-04T07:15:44.186Z,4.82
2023-02-04T07:17:46.983Z,4.99
2023-02-04T07:19:51.158Z,4.92
2023-02-04T07:21:57.175Z,5.03
2023-02-04T07:24:00.088Z,4.96
2023-02-04T07:26:02.804Z,4.84
2023-02-04T07:28:05.702Z,4.79
2023-02-04T07:30:10.134Z,4.65
2023-02-04T07:32:12.932Z,4.64
2023-02-04T07:34:15.930Z,4.43
2023-02-04T07:36:20.010Z,5.87
2023-02-04T07:38:22.773Z,5.29
2023-02-04T07:40:25.768Z,4.96
2023-02-04T07:42:28.522Z,4.90
2023-02-04T07:44:40.126Z,4.89
2023-02-04T07:46:42.956Z,4.67
2023-02-04T07:48:45.861Z,4.64
2023-02-04T07:50:48.681Z,4.79
2023-02-04T07:52:52.755Z,4.63
2023-02-04T07:54:55.500Z,4.73
2023-02-04T07:56:58.461Z,4.62
2023-02-04T07:59:01.217Z,4.71
2023-02-04T08:01:04.215Z,4.91
2023-02-04T08:03:07.317Z,4.80
2023-02-04T08:05:10.998Z,4.80
2023-02-04T08:07:13.736Z,4.78
2023-02-04T08:09:17.793Z,4.65
2023-02-04T08:11:20.577Z,4.49
2023-02-04T08:13:23.397Z,4.52
2023-02-04T08:15:26.211Z,4.64
2023-02-04T08:17:29.714Z,4.99
2023-02-04T08:19:32.480Z,4.61
2023-02-04T08:21:36.414Z,4.78
2023-02-04T08:23:41.708Z,4.60
2023-02-04T08:25:46.179Z,4.62
2023-02-04T08:27:48.963Z,4.59
2023-02-04T08:29:51.680Z,4.81
2023-02-04T08:31:54.538Z,4.96
2023-02-04T08:33:57.301Z,5.14
2023-02-04T08:36:00.555Z,5.11
2023-02-04T08:38:03.394Z,5.34
2023-02-04T08:40:06.935Z,5.44
2023-02-04T08:42:11.308Z,5.42
2023-02-04T08:44:14.061Z,5.17
2023-02-04T08:46:16.901Z,4.99
2023-02-04T08:48:20.141Z,5.15
2023-02-04T08:50:22.847Z,4.96
2023-02-04T08:52:25.589Z,5.07
2023-02-04T08:54:28.307Z,5.19
2023-02-04T08:56:31.238Z,5.04
2023-02-04T08:58:35.653Z,5.12
2023-02-04T09:00:38.625Z,5.08
2023-02-04T09:02:41.392Z,5.34
2023-02-04T09:04:44.148Z,5.34
2023-02-04T09:06:47.222Z,5.12
2023-02-04T09:08:49.925Z,4.92
2023-02-04T09:10:52.640Z,4.98
2023-02-04T09:12:56.135Z,5.15
2023-02-04T09:15:00.222Z,5.29
2023-02-04T09:17:03.025Z,5.60
2023-02-04T09:19:05.931Z,5.59
2023-02-04T09:21:08.667Z,5.45
2023-02-04T09:23:12.182Z,5.64
2023-02-04T09:25:15.229Z,5.77
2023-02-04T09:27:17.961Z,6.01
2023-02-04T09:29:20.801Z,5.61
2023-02-04T09:31:25.017Z,5.14
2023-02-04T09:33:27.875Z,5.25
2023-02-04T09:35:30.712Z,5.47
2023-02-04T09:37:33.471Z,5.73
2023-02-04T09:39:36.160Z,5.45
2023-02-04T09:41:40.649Z,5.79
2023-02-04T09:43:46.390Z,6.04
2023-02-04T09:45:50.748Z,6.24
2023-02-04T09:47:55.780Z,6.11
2023-02-04T09:49:58.738Z,5.93
2023-02-04T09:52:01.796Z,5.77
2023-02-04T09:54:10.045Z,5.93
2023-02-04T09:56:14.834Z,6.09
2023-02-04T09:58:19.233Z,6.17
2023-02-04T10:00:24.646Z,6.15
2023-02-04T10:02:27.883Z,6.15
2023-02-04T10:04:32.145Z,6.32
2023-02-04T10:06:34.934Z,6.30
2023-02-04T10:08:37.748Z,6.69
2023-02-04T10:10:40.545Z,6.62
2023-02-04T10:12:43.292Z,6.57
2023-02-04T10:14:46.153Z,6.87
2023-02-04T10:16:57.220Z,7.17
2023-02-04T10:19:04.558Z,7.12
2023-02-04T10:21:15.949Z,6.86
2023-02-04T10:23:18.964Z,7.16
2023-02-04T10:25:23.880Z,7.14
2023-02-04T10:27:26.625Z,7.39
2023-02-04T10:29:29.379Z,7.26
2023-02-04T10:31:36.013Z,7.32
2023-02-04T10:33:39.791Z,6.89
2023-02-04T10:35:47.661Z,7.40
2023-02-04T10:38:05.069Z,7.12
2023-02-04T10:40:26.256Z,6.69
2023-02-04T10:42:30.307Z,6.96
2023-02-04T10:44:35.896Z,7.40
2023-02-04T10:46:39.171Z,7.38
2023-02-04T10:48:44.151Z,8.01
2023-02-04T10:50:48.296Z,8.27
2023-02-04T10:52:55.408Z,8.74
2023-02-04T10:54:58.134Z,9.30
2023-02-04T10:57:14.271Z,9.06
2023-02-04T10:59:26.741Z,8.87
2023-02-04T11:01:31.022Z,8.96
2023-02-04T11:03:33.831Z,7.77
2023-02-04T11:05:37.276Z,8.32
2023-02-04T11:07:40.324Z,8.09
2023-02-04T11:09:45.258Z,7.84
2023-02-04T11:11:49.510Z,7.79
2023-02-04T11:14:04.165Z,7.57
2023-02-04T11:16:14.349Z,7.55
2023-02-04T11:18:30.053Z,7.34
2023-02-04T11:20:34.472Z,7.82
2023-02-04T11:22:43.257Z,7.08
2023-02-04T11:24:47.317Z,7.41
2023-02-04T11:26:52.580Z,7.35
2023-02-04T11:29:12.103Z,7.66
2023-02-04T11:31:26.389Z,7.93
2023-02-04T11:33:39.737Z,7.99
2023-02-04T11:36:01.592Z,7.97
2023-02-04T11:38:04.333Z,8.17
2023-02-04T11:40:33.273Z,7.98
2023-02-04T11:42:41.869Z,7.48
2023-02-04T11:44:49.935Z,7.38
2023-02-04T11:46:55.450Z,7.68
2023-02-04T11:49:00.602Z,7.40
2023-02-04T11:51:05.825Z,7.24
2023-02-04T11:53:11.591Z,6.94
2023-02-04T11:55:14.409Z,6.99
2023-02-04T11:57:18.488Z,7.28
2023-02-04T11:59:21.513Z,7.55
2023-02-04T12:01:26.619Z,7.53
2023-02-04T12:03:31.428Z,7.30
2023-02-04T12:05:40.771Z,7.30
2023-02-04T12:07:44.318Z,6.88
2023-02-04T12:09:48.938Z,7.28
2023-02-04T12:11:53.717Z,7.24
2023-02-04T12:13:59.832Z,7.41
2023-02-04T12:16:04.994Z,7.64
2023-02-04T12:18:09.960Z,8.69
2023-02-04T12:20:13.848Z,9.02
2023-02-04T12:22:17.233Z,9.11
2023-02-04T12:24:19.989Z,9.03
2023-02-04T12:26:22.677Z,9.48
2023-02-04T12:28:25.524Z,9.87
2023-02-04T12:30:29.629Z,9.85
2023-02-04T12:32:32.280Z,9.93
2023-02-04T12:34:35.335Z,10.07
2023-02-04T12:36:38.243Z,10.85
2023-02-04T12:38:41.595Z,11.63
2023-02-04T12:40:44.581Z,12.28
2023-02-04T12:42:47.396Z,11.65
2023-02-04T12:44:50.101Z,9.83
2023-02-04T12:46:55.070Z,9.56
2023-02-04T12:48:57.824Z,10.46
2023-02-04T12:51:00.504Z,10.17
2023-02-04T12:53:04.074Z,9.29
2023-02-04T12:55:08.553Z,9.09
2023-02-04T12:57:11.906Z,8.83
2023-02-04T12:59:14.627Z,9.10
2023-02-04T13:01:17.404Z,9.16
2023-02-04T13:03:22.757Z,7.94
2023-02-04T13:05:26.148Z,8.77
2023-02-04T13:07:28.795Z,8.81
2023-02-04T13:09:31.466Z,8.87
2023-02-04T13:11:34.163Z,9.12
2023-02-04T13:13:36.817Z,9.23
2023-02-04T13:15:39.517Z,8.81
2023-02-04T13:17:42.153Z,9.08
2023-02-04T13:19:46.119Z,8.98
2023-02-04T13:21:48.780Z,8.90
2023-02-04T13:23:51.843Z,8.36
2023-02-04T13:25:54.553Z,8.19
2023-02-04T13:27:57.267Z,8.02
2023-02-04T13:30:00.198Z,8.31
2023-02-04T13:32:02.934Z,7.99
2023-02-04T13:34:05.637Z,7.68
2023-02-04T13:36:09.824Z,8.79
2023-02-04T13:38:12.486Z,8.83
2023-02-04T13:40:15.184Z,8.89
2023-02-04T13:42:17.914Z,8.73
2023-02-04T13:44:20.722Z,8.59
2023-02-04T13:46:23.583Z,8.74
2023-02-04T13:48:26.443Z,8.91
2023-02-04T13:50:29.529Z,8.67
2023-02-04T13:52:34.482Z,8.44
2023-02-04T13:54:37.333Z,9.32
2023-02-04T13:56:41.128Z,9.97
2023-02-04T13:58:45.492Z,9.80
2023-02-04T14:00:48.325Z,9.77
2023-02-04T14:02:51.089Z,10.09
2023-02-04T14:04:53.868Z,9.96
2023-02-04T14:06:56.714Z,10.14
2023-02-04T14:09:01.156Z,10.02
2023-02-04T14:11:03.989Z,9.29
2023-02-04T14:13:06.861Z,8.97
2023-02-04T14:15:10.418Z,8.56
2023-02-04T14:17:13.165Z,8.02
2023-02-04T14:19:16.023Z,7.97
2023-02-04T14:21:18.775Z,8.05
2023-02-04T14:23:21.534Z,8.31
2023-02-04T14:25:25.637Z,8.07
2023-02-04T14:27:28.407Z,8.04
2023-02-04T14:29:31.154Z,7.69
2023-02-04T14:31:33.973Z,7.78
2023-02-04T14:33:36.749Z,7.85
2023-02-04T14:35:39.450Z,7.85
2023-02-04T14:37:42.208Z,7.86
2023-02-04T14:39:44.944Z,7.71
2023-02-04T14:41:48.985Z,7.71
2023-02-04T14:43:53.221Z,8.11
2023-02-04T14:45:56.023Z,7.46
2023-02-04T14:48:00.465Z,7.60
2023-02-04T14:50:03.941Z,7.38
2023-02-04T14:52:06.757Z,7.74
2023-02-04T14:54:09.550Z,7.61
2023-02-04T14:56:12.258Z,7.14
2023-02-04T14:58:16.353Z,7.23
2023-02-04T15:00:20.581Z,7.42
2023-02-04T15:02:23.332Z,7.14
2023-02-04T15:04:26.090Z,6.57
2023-02-04T15:06:28.812Z,6.45
2023-02-04T15:08:32.730Z,6.29
2023-02-04T15:10:35.438Z,6.55
2023-02-04T15:12:38.301Z,6.52
2023-02-04T15:14:42.363Z,6.66
2023-02-04T15:16:48.033Z,7.48
2023-02-04T15:18:50.798Z,7.33
2023-02-04T15:20:53.575Z,6.97
2023-02-04T15:22:56.501Z,6.80
2023-02-04T15:24:59.227Z,7.18
2023-02-04T15:27:02.071Z,6.98
2023-02-04T15:29:05.476Z,6.58
2023-02-04T15:31:09.835Z,6.71
2023-02-04T15:33:14.055Z,6.91
2023-02-04T15:35:17.054Z,6.62
2023-02-04T15:37:19.806Z,6.18
2023-02-04T15:39:22.585Z,6.41
2023-02-04T15:41:25.325Z,6.31
2023-02-04T15:43:28.162Z,6.41
2023-02-04T15:45:30.950Z,6.35
2023-02-04T15:47:35.028Z,6.08
2023-02-04T15:49:39.062Z,6.13
2023-02-04T15:51:41.840Z,6.17
2023-02-04T15:53:44.594Z,6.12
2023-02-04T15:55:47.666Z,5.83
2023-02-04T15:57:50.597Z,5.82
2023-02-04T15:59:53.343Z,6.05
2023-02-04T16:01:56.105Z,6.43
2023-02-04T16:04:00.772Z,6.36
2023-02-04T16:06:04.204Z,6.06
2023-02-04T16:08:06.941Z,6.41
2023-02-04T16:10:10.294Z,8.19
2023-02-04T16:12:13.008Z,13.82
2023-02-04T16:14:15.738Z,13.19
2023-02-04T16:16:18.638Z,12.44
2023-02-04T16:18:21.461Z,10.38
2023-02-04T16:20:25.602Z,8.69
2023-02-04T16:22:28.607Z,7.59
2023-02-04T16:24:31.314Z,7.32
2023-02-04T16:26:34.112Z,6.97
2023-02-04T16:28:36.826Z,6.83
2023-02-04T16:30:39.767Z,6.69
2023-02-04T16:32:42.557Z,6.17
2023-02-04T16:34:45.330Z,6.22
2023-02-04T16:36:49.397Z,6.01
2023-02-04T16:38:52.126Z,5.78
2023-02-04T16:40:54.877Z,5.71
2023-02-04T16:42:57.976Z,6.13
2023-02-04T16:45:00.698Z,5.82
2023-02-04T16:47:03.599Z,5.80
2023-02-04T16:49:06.349Z,5.57
2023-02-04T16:51:11.260Z,5.70
2023-02-04T16:53:16.212Z,5.86
2023-02-04T16:55:19.043Z,5.66
2023-02-04T16:57:21.863Z,5.42
2023-02-04T16:59:24.630Z,5.24
2023-02-04T17:01:27.553Z,5.37
2023-02-04T17:03:30.345Z,5.27
2023-02-04T17:05:33.455Z,5.16
2023-02-04T17:07:36.408Z,4.94
2023-02-04T17:09:40.545Z,4.82
2023-02-04T17:11:42.663Z,4.63
2023-02-04T17:13:45.508Z,4.56
2023-02-04T17:15:48.364Z,4.68
2023-02-04T17:17:51.161Z,4.52
2023-02-04T17:19:53.934Z,4.53
2023-02-04T17:21:56.679Z,4.56
2023-02-04T17:24:04.361Z,4.51
2023-02-04T17:26:08.626Z,4.44
2023-02-04T17:28:11.758Z,4.15
2023-02-04T17:30:15.459Z,4.73
2023-02-04T17:32:18.275Z,4.92
2023-02-04T17:34:21.098Z,4.92
2023-02-04T17:36:23.840Z,5.08
2023-02-04T17:38:28.019Z,5.15
2023-02-04T17:40:31.402Z,5.05
2023-02-04T17:42:35.556Z,5.11
2023-02-04T17:44:38.316Z,5.10
2023-02-04T17:46:41.235Z,5.14
2023-02-04T17:48:44.349Z,5.16
2023-02-04T17:50:47.197Z,5.25
2023-02-04T17:52:50.065Z,5.14
2023-02-04T17:54:52.792Z,5.21
2023-02-04T17:56:57.815Z,5.05
2023-02-04T17:59:02.142Z,5.14
2023-02-04T18:01:10.823Z,3.73
2023-02-04T18:03:14.867Z,4.74
2023-02-04T18:05:20.422Z,4.78
2023-02-04T18:07:23.925Z,4.55
2023-02-04T18:09:28.010Z,4.55
2023-02-04T18:11:36.998Z,4.25
2023-02-04T18:13:39.712Z,4.27
2023-02-04T18:15:45.622Z,3.91
2023-02-04T18:17:48.355Z,4.05
2023-02-04T18:19:51.088Z,4.32
2023-02-04T18:21:55.099Z,4.46
2023-02-04T18:24:05.934Z,4.53
2023-02-04T18:26:14.692Z,4.56
2023-02-04T18:28:19.421Z,4.52
2023-02-04T18:30:26.324Z,4.64
2023-02-04T18:32:37.989Z,4.61
2023-02-04T18:34:44.209Z,4.57
2023-02-04T18:36:47.029Z,4.57
2023-02-04T18:38:50.622Z,4.12
2023-02-04T18:40:59.304Z,4.45
2023-02-04T18:43:14.211Z,4.46
2023-02-04T18:45:25.682Z,4.42
2023-02-04T18:47:33.392Z,4.05
2023-02-04T18:49:41.193Z,4.27
2023-02-04T18:51:45.863Z,3.78
2023-02-04T18:53:48.776Z,4.12
2023-02-04T18:55:53.271Z,3.46
2023-02-04T18:57:56.510Z,3.98
2023-02-04T19:00:34.773Z,3.97
2023-02-04T19:02:42.779Z,3.97
2023-02-04T19:04:45.947Z,3.92
2023-02-04T19:06:49.949Z,3.50
2023-02-04T19:08:53.928Z,3.88
2023-02-04T19:10:58.076Z,3.21
2023-02-04T19:13:16.015Z,3.90
2023-02-04T19:15:35.037Z,3.95
2023-02-04T19:17:39.343Z,3.96
2023-02-04T19:19:45.223Z,3.93
2023-02-04T19:21:48.864Z,3.92
2023-02-04T19:23:54.244Z,3.86
2023-02-04T19:25:56.984Z,3.81
2023-02-04T19:28:01.319Z,3.82
2023-02-04T19:30:35.118Z,3.78
2023-02-04T19:32:46.364Z,3.71
2023-02-04T19:34:49.340Z,3.70
2023-02-04T19:36:52.360Z,3.49
2023-02-04T19:38:59.302Z,3.63
2023-02-04T19:41:02.097Z,3.63
2023-02-04T19:43:22.244Z,3.66
2023-02-04T19:45:26.775Z,3.64
2023-02-04T19:47:35.262Z,3.26
2023-02-04T19:49:40.776Z,3.23
2023-02-04T19:51:53.239Z,3.47
2023-02-04T19:54:02.563Z,3.24
2023-02-04T19:56:29.196Z,3.08
2023-02-04T19:58:41.687Z,3.08
2023-02-04T20:00:54.992Z,3.01
2023-02-04T20:02:58.492Z,2.81
2023-02-04T20:05:14.352Z,3.03
2023-02-04T20:07:20.813Z,2.59
2023-02-04T20:09:25.183Z,3.00
2023-02-04T20:11:45.089Z,2.64
2023-02-04T20:13:47.914Z,3.05
2023-02-04T20:15:51.951Z,2.89
2023-02-04T20:17:54.751Z,3.04
2023-02-04T20:20:03.402Z,3.03
2023-02-04T20:22:43.786Z,3.00
2023-02-04T20:24:49.040Z,2.95
2023-02-04T20:26:52.858Z,2.94
2023-02-04T20:28:56.115Z,2.87
2023-02-04T20:31:01.636Z,2.91
2023-02-04T20:33:23.653Z,2.84
2023-02-04T20:36:18.422Z,3.06
2023-02-04T20:38:22.554Z,2.95
2023-02-04T20:40:32.383Z,2.77
2023-02-04T20:42:41.903Z,2.85
2023-02-04T20:44:46.931Z,2.89
2023-02-04T20:46:49.836Z,2.83
2023-02-04T20:48:52.722Z,2.81
2023-02-04T20:50:56.440Z,2.85
2023-02-04T20:53:07.435Z,2.87
2023-02-04T20:55:24.486Z,2.83
2023-02-04T20:57:27.355Z,2.85
2023-02-04T20:59:33.819Z,2.89
2023-02-04T21:01:38.336Z,2.45
2023-02-04T21:03:41.135Z,2.38
2023-02-04T21:05:43.955Z,2.23
2023-02-04T21:07:46.871Z,2.01
2023-02-04T21:09:51.691Z,2.12
2023-02-04T21:11:57.376Z,2.37
2023-02-04T21:14:00.172Z,2.34
2023-02-04T21:16:04.676Z,2.70
2023-02-04T21:18:07.945Z,2.30
2023-02-04T21:20:11.798Z,2.86
2023-02-04T21:22:14.923Z,2.94
2023-02-04T21:24:18.303Z,2.99
2023-02-04T21:26:21.207Z,2.67
2023-02-04T21:28:25.387Z,3.03
2023-02-04T21:30:30.330Z,3.05
2023-02-04T21:32:33.212Z,2.80
2023-02-04T21:34:35.938Z,2.46
2023-02-04T21:36:38.660Z,2.62
2023-02-04T21:38:41.473Z,2.02
2023-02-04T21:40:44.279Z,2.69
2023-02-04T21:42:47.053Z,2.45
2023-02-04T21:44:51.131Z,2.19
2023-02-04T21:46:53.853Z,2.31
2023-02-04T21:48:56.558Z,2.06
2023-02-04T21:50:59.298Z,2.67
2023-02-04T21:53:02.094Z,2.79
2023-02-04T21:55:05.206Z,2.85
2023-02-04T21:57:08.023Z,2.98
2023-02-04T21:59:10.736Z,2.71
2023-02-04T22:01:14.844Z,2.74
2023-02-04T22:03:17.678Z,3.01
2023-02-04T22:05:21.515Z,3.11
2023-02-04T22:07:24.394Z,2.97
2023-02-04T22:09:27.162Z,2.82
2023-02-04T22:11:29.890Z,2.86
2023-02-04T22:13:50.373Z,2.83
2023-02-04T22:15:53.190Z,2.78
2023-02-04T22:17:57.663Z,2.66
2023-02-04T22:20:00.415Z,2.54
2023-02-04T22:22:03.174Z,2.51
2023-02-04T22:24:06.557Z,2.43
2023-02-04T22:26:09.690Z,2.33
2023-02-04T22:28:12.506Z,2.67
2023-02-04T22:30:17.294Z,1.93
2023-02-04T22:32:20.196Z,2.23
2023-02-04T22:34:25.171Z,2.20
2023-02-04T22:36:28.000Z,2.22
2023-02-04T22:38:30.810Z,2.20
2023-02-04T22:40:33.627Z,2.35
2023-02-04T22:42:36.447Z,2.40
2023-02-04T22:44:39.296Z,2.48
2023-02-04T22:46:42.189Z,2.63
2023-02-04T22:48:44.967Z,2.41
2023-02-04T22:50:49.047Z,2.43
2023-02-04T22:52:51.765Z,2.59
2023-02-04T22:54:54.551Z,2.47
2023-02-04T22:57:00.243Z,2.53
2023-02-04T22:59:03.001Z,2.02
2023-02-04T23:01:06.214Z,2.31
2023-02-04T23:03:08.972Z,2.34
2023-02-04T23:05:11.705Z,2.42
2023-02-04T23:07:15.824Z,2.30
2023-02-04T23:09:19.343Z,2.57
2023-02-04T23:11:23.219Z,2.28
2023-02-04T23:13:26.106Z,2.29
2023-02-04T23:15:28.937Z,2.19
2023-02-04T23:17:31.770Z,1.86
2023-02-04T23:19:34.577Z,2.02
2023-02-04T23:21:37.445Z,2.09
2023-02-04T23:23:42.004Z,2.26
2023-02-04T23:25:45.061Z,2.19
2023-02-04T23:27:48.231Z,1.82
2023-02-04T23:29:51.009Z,2.18
2023-02-04T23:31:53.797Z,2.28
2023-02-04T23:33:56.625Z,2.30
2023-02-04T23:35:59.532Z,2.55
2023-02-04T23:38:03.029Z,2.29
2023-02-04T23:40:08.161Z,2.14
2023-02-04T23:42:10.893Z,2.71
2023-02-04T23:44:13.774Z,2.72
2023-02-04T23:46:16.488Z,2.42
2023-02-04T23:48:19.315Z,2.51
2023-02-04T23:50:22.202Z,2.77
2023-02-04T23:52:25.003Z,2.61
2023-02-04T23:54:27.793Z,2.56
2023-02-04T23:56:31.962Z,2.55
2023-02-04T23:58:34.788Z,2.52
